M I D A S
Marine Information and Data Acquisition System
Tripno 2302 of the Zeeleeuw from 2012-01-24 06:02:30 to 2012-01-24 13:43:15
Back to CruiseResearch ActivitiesStationsMapUnderway DataData graphs

EquipmentUnitsComment
TimeDGPSUTC
LatitudeDGPSDM.mWGS84
LongitudeDGPSDM.mWGS84
HeadingGyrodeg 
SOGDGPSknotsSpeed over ground
COGDGPSdegCourse over ground
DepthEcho soundermeters200 kHz
Missing or incorrect values are displayed as -999
Navigation data collected by the RV Zeeleeuw from 2012-01-24 05:52:43 to 2012-01-24 15:00:08
Time Latitude Longitude Heading SOG COG Depth
2012-01-24 05:53:48 51°13.635 2°56.018 123.4 -999 344 -999
2012-01-24 05:54:48 51°13.635 2°56.017 123.3 -999 292 -999
2012-01-24 05:55:48 51°13.637 2°56.017 123.7 -999 166 -999
2012-01-24 05:56:47 51°13.638 2°56.018 124 0.1 357 7.7
2012-01-24 05:57:46 51°13.637 2°56.018 124 -999 196 7.7
2012-01-24 05:58:44 51°13.638 2°56.018 124 -999 344 7.7
2012-01-24 05:59:48 51°13.638 2°56.018 124 -999 3 -999
2012-01-24 06:00:48 51°13.638 2°56.018 123.8 -999 129 -999
2012-01-24 06:01:48 51°13.637 2°56.018 113.4 0.1 193 7.9
2012-01-24 06:02:46 51°13.64 2°55.992 104.6 2.9 287 -999
2012-01-24 06:03:48 51°13.664 2°55.888 113.9 4.6 293 -999
2012-01-24 06:04:48 51°13.711 2°55.776 129.9 5.4 311 -999
2012-01-24 06:05:36 51°13.765 2°55.699 143.1 0.1 141 -999
2012-01-24 06:06:48 51°13.859 2°55.621 169.7 5.3 350 -999
2012-01-24 06:07:48 51°13.937 2°55.626 196.5 3.8 14 -999
2012-01-24 06:08:48 51°13.972 2°55.649 222.3 0.4 1 9.1
2012-01-24 06:09:48 51°13.992 2°55.574 311.8 5.4 318 9.5
2012-01-24 06:10:46 51°14.09 2°55.467 326.6 8.4 326 9.5
2012-01-24 06:11:45 51°14.217 2°55.341 328.5 9.5 330 9.4
2012-01-24 06:12:46 51°14.355 2°55.197 326.7 10 325 9.3
2012-01-24 06:13:46 51°14.501 2°55.047 326.5 11.1 327 9.9
2012-01-24 06:14:45 51°14.666 2°54.898 342 11.7 338 10.5
2012-01-24 06:15:45 51°14.852 2°54.807 348.4 11.7 345 9.5
2012-01-24 06:16:45 51°15.037 2°54.739 347.4 11.5 340 8.3
2012-01-24 06:17:45 51°15.215 2°54.631 341.9 11.7 334 7.6
2012-01-24 06:18:45 51°15.384 2°54.461 330.6 12.1 326 8.5
2012-01-24 06:19:45 51°15.554 2°54.285 333.4 12.1 330 9.2
2012-01-24 06:20:45 51°15.725 2°54.117 328.5 12.2 322 9.6
2012-01-24 06:21:45 51°15.878 2°53.903 325.2 12.3 320 9.9
2012-01-24 06:22:45 51°16.035 2°53.689 327.3 12.3 323 10.3
2012-01-24 06:23:45 51°16.206 2°53.512 333.3 12.2 327 10.9
2012-01-24 06:24:45 51°16.372 2°53.316 325.1 12.5 318 11.4
2012-01-24 06:25:45 51°16.531 2°53.105 330.4 12.3 327 11.2
2012-01-24 06:26:45 51°16.702 2°52.932 330.4 12.2 324 10.1
2012-01-24 06:27:45 51°16.871 2°52.76 337.3 11.8 334 8.7
2012-01-24 06:28:45 51°17.049 2°52.621 337.1 12 333 9.1
2012-01-24 06:29:45 51°17.225 2°52.473 338.3 11.9 334 9
2012-01-24 06:30:45 51°17.411 2°52.365 348.1 11.8 345 9.6
2012-01-24 06:31:45 51°17.604 2°52.313 356.5 11.7 352 9.7
2012-01-24 06:32:45 51°17.795 2°52.291 2.9 11.6 359 9.8
2012-01-24 06:33:45 51°17.987 2°52.276 359.6 11.7 355 9.6
2012-01-24 06:34:45 51°18.18 2°52.236 357.6 11.7 353 10.6
2012-01-24 06:35:45 51°18.373 2°52.224 2.6 11.7 356 10.2
2012-01-24 06:36:45 51°18.568 2°52.208 3.9 11.7 358 10.9
2012-01-24 06:37:45 51°18.762 2°52.193 1.9 11.8 357 12.2
2012-01-24 06:38:45 51°18.957 2°52.153 357.6 11.9 351 12.5
2012-01-24 06:39:45 51°19.151 2°52.117 3.8 11.7 357 14.1
2012-01-24 06:40:45 51°19.345 2°52.092 358.5 11.7 351 14.3
2012-01-24 06:41:45 51°19.536 2°52.044 357.9 11.7 352 14.7
2012-01-24 06:42:45 51°19.728 2°52.022 3.3 11.6 356 15.2
2012-01-24 06:43:45 51°19.92 2°51.976 356.8 11.8 351 15
2012-01-24 06:44:45 51°20.113 2°51.923 358.6 11.8 352 14
2012-01-24 06:45:45 51°20.307 2°51.891 2.8 11.5 356 12.9
2012-01-24 06:46:45 51°20.501 2°51.867 1.9 11.8 354 12.9
2012-01-24 06:47:45 51°20.695 2°51.829 358.6 11.9 349 13.6
2012-01-24 06:48:45 51°20.89 2°51.776 359.5 11.9 352 15.6
2012-01-24 06:49:45 51°21.087 2°51.732 359.8 12 352 17.5
2012-01-24 06:50:45 51°21.282 2°51.693 2.8 11.8 357 19.6
2012-01-24 06:51:45 51°21.48 2°51.673 2.6 12 355 22
2012-01-24 06:52:45 51°21.679 2°51.635 2.1 12.1 356 23.4
2012-01-24 06:53:45 51°21.878 2°51.624 5.4 11.9 359 23.7
2012-01-24 06:54:45 51°22.076 2°51.632 8.5 11.8 4 22.9
2012-01-24 06:55:45 51°22.275 2°51.637 5 12.1 357 22.3
2012-01-24 06:56:45 51°22.474 2°51.618 3.4 11.7 357 22.1
2012-01-24 06:57:45 51°22.667 2°51.619 6.6 11.6 -999 22.3
2012-01-24 06:58:45 51°22.861 2°51.608 3.2 11.7 357 22.1
2012-01-24 06:59:45 51°23.056 2°51.606 8 11.8 1 20.7
2012-01-24 07:00:45 51°23.251 2°51.608 5.2 11.8 359 14.7
2012-01-24 07:01:45 51°23.447 2°51.616 7.8 11.9 2 13.9
2012-01-24 07:02:45 51°23.644 2°51.609 1.5 11.8 357 14.9
2012-01-24 07:03:45 51°23.84 2°51.599 6.3 11.8 2 17.6
2012-01-24 07:04:45 51°24.032 2°51.631 12.1 11.6 6 19.2
2012-01-24 07:05:45 51°24.226 2°51.638 5.7 11.8 -999 19.6
2012-01-24 07:06:45 51°24.42 2°51.655 11.8 11.7 6 20.6
2012-01-24 07:07:45 51°24.612 2°51.674 6.3 11.7 1 21
2012-01-24 07:08:45 51°24.804 2°51.696 10.5 11.5 4 21.3
2012-01-24 07:09:45 51°24.998 2°51.708 6.5 11.7 359 21.5
2012-01-24 07:10:45 51°25.191 2°51.707 7.1 11.4 2 22
2012-01-24 07:11:45 51°25.377 2°51.735 11 11.1 5 22.3
2012-01-24 07:12:45 51°25.563 2°51.755 7.9 11.2 1 24.6
2012-01-24 07:13:45 51°25.75 2°51.756 6.2 11.4 1 29.5
2012-01-24 07:14:45 51°25.941 2°51.756 6.6 11.5 2 28.9
2012-01-24 07:15:45 51°26.131 2°51.78 9.9 11.4 4 25.6
2012-01-24 07:16:45 51°26.321 2°51.788 5.5 11.6 -999 25.4
2012-01-24 07:17:45 51°26.515 2°51.773 3.4 11.5 357 24.9
2012-01-24 07:18:45 51°26.709 2°51.759 4.9 11.7 -999 24.2
2012-01-24 07:19:45 51°26.902 2°51.756 2.3 11.8 356 20.9
2012-01-24 07:20:45 51°27.098 2°51.738 2.4 11.8 358 17.5
2012-01-24 07:21:45 51°27.291 2°51.736 6.2 11.3 2 21.1
2012-01-24 07:22:45 51°27.483 2°51.741 4.9 11.6 2 19.1
2012-01-24 07:23:45 51°27.674 2°51.748 4 11.6 -999 20.7
2012-01-24 07:24:45 51°27.869 2°51.737 1.5 11.4 357 21.4
2012-01-24 07:25:45 51°28.062 2°51.736 5.7 11.7 2 24
2012-01-24 07:26:45 51°28.254 2°51.75 5.4 11.6 1 25.8
2012-01-24 07:27:45 51°28.447 2°51.74 1.7 11.6 356 27.1
2012-01-24 07:28:45 51°28.639 2°51.73 4 11.6 1 28.5
2012-01-24 07:29:45 51°28.83 2°51.735 6.5 11.5 1 28.4
2012-01-24 07:30:45 51°29.019 2°51.726 3.9 11.3 359 28.9
2012-01-24 07:31:45 51°29.21 2°51.723 5.7 11.4 -999 30.1
2012-01-24 07:32:45 51°29.401 2°51.727 6.4 11.6 3 29.1
2012-01-24 07:33:45 51°29.592 2°51.716 2.9 11.5 357 29.4
2012-01-24 07:34:45 51°29.784 2°51.701 3.9 11.6 -999 30.8
2012-01-24 07:35:45 51°29.971 2°51.744 13.8 11.3 11 28.6
2012-01-24 07:36:45 51°30.158 2°51.799 14.7 11.7 11 30.3
2012-01-24 07:37:45 51°30.346 2°51.84 9 11.3 5 25.2
2012-01-24 07:38:45 51°30.531 2°51.887 17.2 11.2 17 19.2
2012-01-24 07:39:45 51°30.698 2°52.011 27.3 11.1 29 20.6
2012-01-24 07:40:45 51°30.865 2°52.135 27.1 10.9 26 19.6
2012-01-24 07:41:45 51°31.031 2°52.262 28.5 11.1 28 20.3
2012-01-24 07:42:45 51°31.176 2°52.407 36.4 8.2 38 19.1
2012-01-24 07:43:45 51°31.23 2°52.487 50.9 2.1 73 19.2
2012-01-24 07:44:45 51°31.219 2°52.488 90.8 1.1 211 20.5
2012-01-24 07:45:45 51°31.201 2°52.475 112.1 1 207 21
2012-01-24 07:46:45 51°31.192 2°52.471 93.6 0.4 166 20.8
2012-01-24 07:47:45 51°31.185 2°52.481 55.7 0.3 103 20.5
2012-01-24 07:48:45 51°31.182 2°52.488 35.4 0.2 137 21.4
2012-01-24 07:49:45 51°31.181 2°52.486 17.3 0.2 296 21.1
2012-01-24 07:50:45 51°31.182 2°52.482 6.7 0.3 314 21.2
2012-01-24 07:51:45 51°31.184 2°52.475 5.4 0.4 297 21.1
2012-01-24 07:52:45 51°31.187 2°52.471 7.3 0.4 334 21.5
2012-01-24 07:53:45 51°31.189 2°52.467 7.5 0.1 338 21
2012-01-24 07:54:45 51°31.19 2°52.465 9.2 0.1 328 21
2012-01-24 07:55:45 51°31.19 2°52.462 10.5 0.4 325 21.2
2012-01-24 07:56:45 51°31.191 2°52.461 11.1 0.1 54 21.8
2012-01-24 07:57:45 51°31.191 2°52.461 12.5 0.1 314 21
2012-01-24 07:58:45 51°31.191 2°52.461 13.6 0.1 303 21.2
2012-01-24 07:59:45 51°31.19 2°52.461 14.2 0.1 123 21.3
2012-01-24 08:00:45 51°31.19 2°52.462 14.9 0.1 238 21.1
2012-01-24 08:01:45 51°31.191 2°52.46 15.2 0.1 264 21.1
2012-01-24 08:02:45 51°31.19 2°52.462 17.1 0.1 167 21.2
2012-01-24 08:03:45 51°31.189 2°52.463 18 0.2 73 20.9
2012-01-24 08:04:45 51°31.189 2°52.463 16.2 -999 278 20.8
2012-01-24 08:05:45 51°31.188 2°52.464 17 0.1 274 21
2012-01-24 08:06:45 51°31.188 2°52.464 13.7 0.1 299 21.2
2012-01-24 08:07:45 51°31.188 2°52.463 12.6 -999 66 21.5
2012-01-24 08:08:45 51°31.19 2°52.461 13 0.2 274 21.4
2012-01-24 08:09:45 51°31.191 2°52.46 15.8 0.1 336 21.1
2012-01-24 08:10:45 51°31.19 2°52.461 15.9 0.1 138 21.2
2012-01-24 08:11:45 51°31.19 2°52.46 16.1 0.1 213 21.3
2012-01-24 08:12:45 51°31.19 2°52.461 18 0.1 71 21.3
2012-01-24 08:13:45 51°31.189 2°52.462 17.4 0.1 92 21.4
2012-01-24 08:14:45 51°31.188 2°52.463 19 -999 341 21.5
2012-01-24 08:15:45 51°31.188 2°52.463 15.9 0.1 252 21.3
2012-01-24 08:16:45 51°31.19 2°52.463 15.1 0.1 38 21.1
2012-01-24 08:17:45 51°31.189 2°52.462 16.1 0.2 308 21.2
2012-01-24 08:18:45 51°31.189 2°52.464 17.6 0.1 66 21.5
2012-01-24 08:19:45 51°31.188 2°52.463 16.8 0.1 178 21.1
2012-01-24 08:20:45 51°31.188 2°52.464 18 -999 342 21.2
2012-01-24 08:21:45 51°31.189 2°52.463 13.5 0.1 344 21.2
2012-01-24 08:22:45 51°31.19 2°52.461 14.6 0.1 266 21.5
2012-01-24 08:23:45 51°31.192 2°52.458 14.2 0.2 285 21.4
2012-01-24 08:24:45 51°31.192 2°52.458 17.9 0.1 230 20.8
2012-01-24 08:25:45 51°31.191 2°52.459 20.3 0.1 125 21.4
2012-01-24 08:26:45 51°31.19 2°52.461 17.5 -999 109 21.2
2012-01-24 08:27:45 51°31.19 2°52.461 18.4 0.1 140 21.6
2012-01-24 08:28:45 51°31.191 2°52.46 16.1 0.1 340 21.5
2012-01-24 08:29:45 51°31.19 2°52.46 18.2 0.1 200 21.2
2012-01-24 08:30:45 51°31.19 2°52.46 18.1 0.1 68 21
2012-01-24 08:31:45 51°31.19 2°52.46 17.3 0.1 297 21.3
2012-01-24 08:32:45 51°31.19 2°52.46 19 0.1 304 21.6
2012-01-24 08:33:45 51°31.19 2°52.46 16.8 0.1 261 21.4
2012-01-24 08:34:45 51°31.191 2°52.458 15.4 0.2 312 21.3
2012-01-24 08:35:45 51°31.192 2°52.459 17.4 0.1 8 21.5
2012-01-24 08:36:45 51°31.192 2°52.457 16.8 0.2 347 21.1
2012-01-24 08:37:45 51°31.192 2°52.457 17.9 0.1 205 21.1
2012-01-24 08:38:45 51°31.202 2°52.464 19.6 0.8 18 21.9
2012-01-24 08:39:45 51°31.209 2°52.472 23.9 0.6 63 21.5
2012-01-24 08:40:45 51°31.211 2°52.486 30.1 0.8 70 21.2
2012-01-24 08:41:45 51°31.212 2°52.494 29.4 0.2 189 21
2012-01-24 08:42:45 51°31.204 2°52.49 14.6 0.7 206 21.1
2012-01-24 08:43:45 51°31.203 2°52.484 19.4 1 17 21.5
2012-01-24 08:44:45 51°31.22 2°52.527 53.8 2.8 74 20.4
2012-01-24 08:45:45 51°31.248 2°52.604 42.2 3.6 47 21.1
2012-01-24 08:46:45 51°31.297 2°52.666 34.3 3.5 35 22.2
2012-01-24 08:47:45 51°31.336 2°52.714 35.5 2.6 40 19
2012-01-24 08:48:45 51°31.366 2°52.761 37.3 2.5 46 21.6
2012-01-24 08:49:45 51°31.398 2°52.808 37.7 3 44 22.4
2012-01-24 08:50:45 51°31.431 2°52.872 45.3 3.4 57 17.5
2012-01-24 08:51:45 51°31.463 2°52.941 43 3 51 20.9
2012-01-24 08:52:45 51°31.514 2°53.025 39.7 6.4 43 21.5
2012-01-24 08:53:45 51°31.61 2°53.178 46 8.9 48 22.2
2012-01-24 08:54:45 51°31.696 2°53.383 54.8 9.6 59 20.3
2012-01-24 08:55:45 51°31.782 2°53.606 52.7 9.9 55 21.9
2012-01-24 08:56:45 51°31.888 2°53.809 45.5 10 48 22.8
2012-01-24 08:57:45 51°32.003 2°53.996 41.1 10 42 21.4
2012-01-24 08:58:45 51°32.119 2°54.181 42.7 9.8 44 21.4
2012-01-24 08:59:45 51°32.229 2°54.379 47.3 9.9 52 22
2012-01-24 09:00:45 51°32.331 2°54.584 47.3 9.2 50 22.6
2012-01-24 09:01:45 51°32.396 2°54.701 41.5 3.8 49 23
2012-01-24 09:02:45 51°32.396 2°54.771 89.2 2.9 128 22.4
2012-01-24 09:03:45 51°32.352 2°54.811 128.4 3.1 158 22.9
2012-01-24 09:04:45 51°32.305 2°54.834 139.6 2.9 170 23.1
2012-01-24 09:05:45 51°32.255 2°54.844 149.9 3 172 22.1
2012-01-24 09:06:45 51°32.204 2°54.845 160.5 3.1 183 21.5
2012-01-24 09:07:45 51°32.153 2°54.842 158.4 2.9 182 22.3
2012-01-24 09:08:45 51°32.107 2°54.85 126.4 2.9 166 21.6
2012-01-24 09:09:45 51°32.078 2°54.881 73.6 1.5 124 20.2
2012-01-24 09:10:45 51°32.079 2°54.902 28.4 0.9 30 21.6
2012-01-24 09:11:45 51°32.098 2°54.917 21.1 1.5 20 22.2
2012-01-24 09:12:45 51°32.129 2°54.929 14.1 1.9 6 21.7
2012-01-24 09:13:45 51°32.162 2°54.945 28.3 2.2 34 20.6
2012-01-24 09:14:45 51°32.193 2°54.988 35.7 2.9 43 22.6
2012-01-24 09:15:45 51°32.241 2°55.045 31.2 4.1 32 21.7
2012-01-24 09:16:45 51°32.298 2°55.104 31.5 4.2 36 20.5
2012-01-24 09:17:45 51°32.355 2°55.169 36.1 4.2 42 22.6
2012-01-24 09:18:45 51°32.407 2°55.244 34.2 3.6 38 19.9
2012-01-24 09:19:45 51°32.436 2°55.267 18.7 0.9 6 22.8
2012-01-24 09:20:45 51°32.442 2°55.259 9.9 0.5 272 22.9
2012-01-24 09:21:45 51°32.437 2°55.244 5.9 0.8 232 22.6
2012-01-24 09:22:45 51°32.422 2°55.225 1.3 1.3 216 19.7
2012-01-24 09:23:45 51°32.404 2°55.208 345.5 1.3 206 22.9
2012-01-24 09:24:45 51°32.382 2°55.189 336.1 1.6 211 22.1
2012-01-24 09:25:45 51°32.357 2°55.173 335 1.6 199 22.1
2012-01-24 09:26:45 51°32.331 2°55.163 339.3 1.6 192 23.2
2012-01-24 09:27:45 51°32.304 2°55.154 348.8 1.7 192 23
2012-01-24 09:28:45 51°32.276 2°55.142 359.3 1.7 194 19.9
2012-01-24 09:29:45 51°32.249 2°55.132 8.8 1.6 191 22.2
2012-01-24 09:30:45 51°32.223 2°55.123 22.6 1.6 191 22.7
2012-01-24 09:31:45 51°32.198 2°55.113 32.5 1.6 194 22.3
2012-01-24 09:32:45 51°32.172 2°55.1 33.8 1.6 195 19
2012-01-24 09:33:45 51°32.147 2°55.087 26.9 1.5 198 22
2012-01-24 09:34:45 51°32.123 2°55.075 18.2 1.4 195 22.7
2012-01-24 09:35:45 51°32.099 2°55.065 12.2 1.6 198 22.3
2012-01-24 09:36:45 51°32.073 2°55.052 13.6 1.6 200 19.7
2012-01-24 09:37:45 51°32.047 2°55.041 8.8 1.5 190 21.3
2012-01-24 09:38:45 51°32.022 2°55.033 11.2 1.6 195 21.9
2012-01-24 09:39:45 51°31.998 2°55.025 10.8 1.6 194 21.7
2012-01-24 09:40:45 51°31.971 2°55.014 8.4 1.7 192 18.3
2012-01-24 09:41:45 51°31.958 2°55.005 1.7 0.4 286 21.4
2012-01-24 09:42:45 51°31.989 2°55 13.6 2.8 10 19.3
2012-01-24 09:43:45 51°32.036 2°55.035 26.7 3.4 24 22.1
2012-01-24 09:44:45 51°32.092 2°55.077 26.1 3.9 27 22.3
2012-01-24 09:45:45 51°32.163 2°55.129 22.2 5.2 20 20.9
2012-01-24 09:46:45 51°32.241 2°55.19 29 5.3 27 19.3
2012-01-24 09:47:45 51°32.318 2°55.259 27.7 5.3 28 19.6
2012-01-24 09:48:45 51°32.373 2°55.29 12.8 2.1 2 19.8
2012-01-24 09:49:45 51°32.394 2°55.278 356 1 309 20.3
2012-01-24 09:50:45 51°32.397 2°55.255 345 0.9 260 20.5
2012-01-24 09:51:45 51°32.391 2°55.232 333.4 1 235 22.6
2012-01-24 09:52:45 51°32.378 2°55.213 334.5 1.1 214 23.1
2012-01-24 09:53:45 51°32.361 2°55.196 336.2 1.3 211 19.7
2012-01-24 09:54:45 51°32.343 2°55.184 335.5 1.2 197 23
2012-01-24 09:55:45 51°32.323 2°55.176 340.5 1.3 185 23.1
2012-01-24 09:56:45 51°32.302 2°55.169 349.7 1.3 199 23.6
2012-01-24 09:57:45 51°32.28 2°55.162 355.5 1.5 193 21.6
2012-01-24 09:58:45 51°32.254 2°55.154 355.3 1.6 191 21.8
2012-01-24 09:59:45 51°32.23 2°55.149 355 1.5 188 23.1
2012-01-24 10:00:45 51°32.204 2°55.145 359 1.6 185 23.3
2012-01-24 10:01:45 51°32.178 2°55.141 5.5 1.5 185 22.4
2012-01-24 10:02:45 51°32.153 2°55.137 8.9 1.5 191 20.6
2012-01-24 10:03:45 51°32.128 2°55.131 6.9 1.4 187 21.1
2012-01-24 10:04:45 51°32.105 2°55.129 6.2 1.3 180 22.5
2012-01-24 10:05:45 51°32.082 2°55.125 3.8 1.4 184 22.2
2012-01-24 10:06:45 51°32.058 2°55.123 5.4 1.1 188 22.1
2012-01-24 10:07:45 51°32.039 2°55.119 13.9 1.2 189 21.5
2012-01-24 10:08:46 51°32.024 2°55.116 22 0.4 140 18.9
2012-01-24 10:09:45 51°32.031 2°55.127 10.6 1.1 4 20.3
2012-01-24 10:10:45 51°32.061 2°55.112 348.5 2.4 324 22.3
2012-01-24 10:11:45 51°32.073 2°55.053 295.4 2.6 266 19.5
2012-01-24 10:12:45 51°32.053 2°54.984 249.1 3.1 230 22.4
2012-01-24 10:13:45 51°32.006 2°54.943 191.3 3.3 193 21.5
2012-01-24 10:14:45 51°31.959 2°54.936 168.2 2.8 184 20.7
2012-01-24 10:15:45 51°31.911 2°54.942 149.1 3.3 163 21.1
2012-01-24 10:16:45 51°31.876 2°54.996 83.3 2.5 106 21
2012-01-24 10:17:45 51°31.889 2°55.04 22.4 2.1 28 21
2012-01-24 10:18:45 51°31.928 2°55.074 27.7 3.3 33 19.4
2012-01-24 10:19:45 51°31.974 2°55.142 43.1 4.1 49 21.4
2012-01-24 10:20:45 51°32.021 2°55.224 36 4.2 41 23.1
2012-01-24 10:21:45 51°32.081 2°55.268 17.5 3.8 18 22.4
2012-01-24 10:22:45 51°32.144 2°55.301 18 4.2 18 21.1
2012-01-24 10:23:45 51°32.21 2°55.326 16.8 4.1 17 22.9
2012-01-24 10:24:45 51°32.276 2°55.356 19 3.9 22 22.9
2012-01-24 10:25:45 51°32.325 2°55.387 16 1.9 14 22.2
2012-01-24 10:26:45 51°32.345 2°55.393 9.4 0.5 11 23.4
2012-01-24 10:27:45 51°32.349 2°55.395 2.8 0.1 288 23.5
2012-01-24 10:28:45 51°32.344 2°55.395 359.3 0.5 183 23.7
2012-01-24 10:29:45 51°32.333 2°55.393 354.3 0.9 184 23.2
2012-01-24 10:30:45 51°32.318 2°55.391 350.2 1.1 184 22.1
2012-01-24 10:31:45 51°32.298 2°55.39 349.7 1.3 188 19.7
2012-01-24 10:32:45 51°32.278 2°55.39 347.6 1.2 174 21.5
2012-01-24 10:33:45 51°32.257 2°55.392 349.9 1.2 175 22.3
2012-01-24 10:34:45 51°32.234 2°55.395 357.3 1.5 181 21.7
2012-01-24 10:35:45 51°32.208 2°55.395 4.9 1.7 180 18.9
2012-01-24 10:36:45 51°32.183 2°55.398 7.7 1.4 170 21.8
2012-01-24 10:37:45 51°32.159 2°55.402 10.4 1.3 174 22.8
2012-01-24 10:38:45 51°32.151 2°55.406 356.4 0.2 357 22.6
2012-01-24 10:39:45 51°32.164 2°55.396 347 1.4 335 23
2012-01-24 10:40:45 51°32.192 2°55.381 353.7 2.2 349 22.1
2012-01-24 10:41:45 51°32.247 2°55.385 11.7 3.9 14 22.2
2012-01-24 10:42:45 51°32.297 2°55.352 311.5 3.6 293 22.6
2012-01-24 10:43:45 51°32.271 2°55.257 225.1 4.6 214 23.6
2012-01-24 10:44:45 51°32.208 2°55.234 183.4 3.4 182 19.8
2012-01-24 10:45:45 51°32.155 2°55.233 178.2 2.8 178 23.2
2012-01-24 10:46:45 51°32.115 2°55.238 177.8 2.3 175 22.7
2012-01-24 10:47:45 51°32.081 2°55.243 180.8 1.9 174 21.2
2012-01-24 10:48:45 51°32.052 2°55.247 182.9 1.7 172 20.7
2012-01-24 10:49:45 51°32.026 2°55.253 181.3 1.5 177 21.8
2012-01-24 10:50:45 51°32 2°55.26 184.5 1.6 168 22.9
2012-01-24 10:51:45 51°31.978 2°55.27 183.5 1.3 160 22.8
2012-01-24 10:52:45 51°31.944 2°55.279 182.1 2.8 177 22.4
2012-01-24 10:53:45 51°31.881 2°55.262 203.9 4.5 198 21.5
2012-01-24 10:54:45 51°31.8 2°55.21 206.2 6.6 202 21.7
2012-01-24 10:55:45 51°31.666 2°55.125 203 9.5 203 21.4
2012-01-24 10:56:45 51°31.513 2°55.023 205.6 10.2 204 20.8
2012-01-24 10:57:45 51°31.364 2°54.905 209.1 9.2 206 17.9
2012-01-24 10:58:45 51°31.255 2°54.817 206.2 6.1 197 17.7
2012-01-24 10:59:45 51°31.178 2°54.806 177.6 3.8 174 19.1
2012-01-24 11:00:45 51°31.124 2°54.82 169.2 2.9 167 16.8
2012-01-24 11:01:45 51°31.084 2°54.837 170.6 2.2 167 19.9
2012-01-24 11:02:45 51°31.017 2°54.844 182.6 7.7 180 20.1
2012-01-24 11:03:45 51°30.841 2°54.792 197.9 12.6 199 22.4
2012-01-24 11:04:45 51°30.641 2°54.66 203.4 12.9 199 33.4
2012-01-24 11:05:45 51°30.444 2°54.534 199.5 12.7 198 36
2012-01-24 11:06:45 51°30.246 2°54.414 199.3 12.7 201 34.3
2012-01-24 11:07:45 51°30.048 2°54.306 198.2 12.5 200 34.6
2012-01-24 11:08:45 51°29.847 2°54.2 200.4 12.6 199 33.4
2012-01-24 11:09:45 51°29.652 2°54.081 201.8 12.4 202 32.1
2012-01-24 11:10:45 51°29.455 2°53.979 196.6 12.4 198 30.4
2012-01-24 11:11:45 51°29.258 2°53.86 202.7 12.8 204 29.7
2012-01-24 11:12:45 51°29.061 2°53.74 199.4 12.5 198 28.9
2012-01-24 11:13:45 51°28.86 2°53.636 196.1 12.7 200 27.6
2012-01-24 11:14:45 51°28.661 2°53.518 200 12.9 199 26.8
2012-01-24 11:15:45 51°28.465 2°53.393 201.2 12.8 201 25.6
2012-01-24 11:16:45 51°28.265 2°53.278 198.1 12.9 200 22.6
2012-01-24 11:17:45 51°28.062 2°53.165 199.1 12.8 202 22.9
2012-01-24 11:18:45 51°27.863 2°53.037 201.7 12.8 204 22.6
2012-01-24 11:19:45 51°27.663 2°52.913 199.3 12.8 199 21.9
2012-01-24 11:20:45 51°27.463 2°52.79 201.1 13.1 202 22.6
2012-01-24 11:21:45 51°27.262 2°52.678 196.1 12.7 196 21.7
2012-01-24 11:22:45 51°27.069 2°52.544 211.8 12.5 212 22.8
2012-01-24 11:23:45 51°26.919 2°52.317 232.9 12.3 235 28.3
2012-01-24 11:24:45 51°26.82 2°52.083 234.7 8.9 230 27.3
2012-01-24 11:25:45 51°26.71 2°51.946 219.3 7.6 217 28.4
2012-01-24 11:26:45 51°26.658 2°51.839 265 3.7 260 29.1
2012-01-24 11:27:45 51°26.646 2°51.722 254 4.6 249 27.4
2012-01-24 11:28:45 51°26.625 2°51.677 244.5 0.6 154 27.2
2012-01-24 11:29:47 51°26.617 2°51.701 235.1 1.2 113 4.8
2012-01-24 11:30:46 51°26.611 2°51.731 220 1.2 107 28.2
2012-01-24 11:31:45 51°26.606 2°51.756 222.2 0.7 100 28.2
2012-01-24 11:32:45 51°26.603 2°51.765 263 0.2 216 28.1
2012-01-24 11:33:45 51°26.604 2°51.762 290.8 0.2 331 28.1
2012-01-24 11:34:45 51°26.609 2°51.762 294.5 0.2 16 28.1
2012-01-24 11:35:45 51°26.61 2°51.761 283.8 0.1 249 28.4
2012-01-24 11:36:45 51°26.61 2°51.763 275.9 0.1 16 28.2
2012-01-24 11:37:45 51°26.609 2°51.762 273.5 -999 315 28.1
2012-01-24 11:38:45 51°26.609 2°51.764 276.7 0.3 60 28.4
2012-01-24 11:39:45 51°26.613 2°51.765 280.5 0.2 337 28.3
2012-01-24 11:40:45 51°26.615 2°51.764 274.7 0.1 1 28.7
2012-01-24 11:41:45 51°26.615 2°51.764 270.4 0.1 355 28.6
2012-01-24 11:42:45 51°26.612 2°51.764 263.5 0.2 167 28.4
2012-01-24 11:43:45 51°26.611 2°51.764 271.1 0.1 58 28.3
2012-01-24 11:44:45 51°26.613 2°51.764 281 0.2 12 29
2012-01-24 11:45:45 51°26.617 2°51.761 276.9 0.2 290 28.8
2012-01-24 11:46:45 51°26.617 2°51.761 266.6 0.1 138 28.5
2012-01-24 11:47:45 51°26.613 2°51.765 256.8 0.4 160 28.8
2012-01-24 11:48:45 51°26.612 2°51.763 265.5 0.2 304 28.5
2012-01-24 11:49:45 51°26.613 2°51.762 277 0.2 29 28.5
2012-01-24 11:50:45 51°26.617 2°51.764 277.7 0.1 346 28.9
2012-01-24 11:51:45 51°26.62 2°51.763 269.4 0.1 290 29.3
2012-01-24 11:52:45 51°26.62 2°51.764 261.6 -999 67 29.2
2012-01-24 11:53:45 51°26.62 2°51.764 258.2 0.1 218 29.1
2012-01-24 11:54:45 51°26.62 2°51.764 259.2 -999 275 29.2
2012-01-24 11:55:45 51°26.62 2°51.763 259.9 -999 39 29.1
2012-01-24 11:56:45 51°26.621 2°51.764 260.6 0.1 48 28.9
2012-01-24 11:57:46 51°26.62 2°51.764 254.6 0.2 156 29.3
2012-01-24 11:58:45 51°26.617 2°51.765 250.8 0.2 157 28.9
2012-01-24 11:59:45 51°26.614 2°51.764 256.4 0.1 255 29
2012-01-24 12:00:45 51°26.616 2°51.763 267.6 0.2 359 29.2
2012-01-24 12:01:45 51°26.621 2°51.762 269.1 0.2 332 29.2
2012-01-24 12:02:45 51°26.622 2°51.76 259.2 -999 190 29.2
2012-01-24 12:03:45 51°26.622 2°51.762 254.1 0.1 137 29.1
2012-01-24 12:04:45 51°26.621 2°51.764 255.9 0.1 139 29
2012-01-24 12:05:45 51°26.621 2°51.762 257.1 0.1 246 29.1
2012-01-24 12:06:45 51°26.62 2°51.762 255.1 0.1 149 29.2
2012-01-24 12:07:45 51°26.619 2°51.764 256.9 -999 77 29.2
2012-01-24 12:08:46 51°26.62 2°51.763 261.3 0.2 332 29.4
2012-01-24 12:09:45 51°26.621 2°51.763 259.6 0.1 120 29.3
2012-01-24 12:10:45 51°26.62 2°51.762 257.9 -999 105 29.4
2012-01-24 12:11:45 51°26.621 2°51.764 257.2 0.1 193 29.4
2012-01-24 12:12:45 51°26.62 2°51.762 257.8 -999 311 29.5
2012-01-24 12:13:45 51°26.623 2°51.761 261 0.2 353 29.1
2012-01-24 12:14:45 51°26.625 2°51.76 257.8 0.2 262 29.2
2012-01-24 12:15:45 51°26.624 2°51.761 251.3 0.2 149 29.2
2012-01-24 12:16:45 51°26.622 2°51.762 251.8 0.1 69 29.7
2012-01-24 12:17:45 51°26.622 2°51.762 257 0.2 348 29.5
2012-01-24 12:18:45 51°26.624 2°51.761 257.7 -999 234 29.1
2012-01-24 12:19:45 51°26.625 2°51.762 254.4 0.2 125 29.3
2012-01-24 12:20:45 51°26.622 2°51.762 249.6 0.1 198 29.2
2012-01-24 12:21:45 51°26.621 2°51.763 252.3 0.2 341 29.2
2012-01-24 12:22:45 51°26.621 2°51.765 252.6 0.1 320 29.4
2012-01-24 12:23:45 51°26.62 2°51.763 251.9 -999 286 29.8
2012-01-24 12:24:45 51°26.621 2°51.764 253.9 0.1 66 29.5
2012-01-24 12:25:45 51°26.622 2°51.763 254 0.3 318 29.4
2012-01-24 12:26:45 51°26.623 2°51.759 254.3 0.3 243 29.7
2012-01-24 12:27:45 51°26.624 2°51.747 256 0.7 287 29
2012-01-24 12:28:45 51°26.624 2°51.736 252.7 0.3 255 29.1
2012-01-24 12:29:46 51°26.624 2°51.725 250.5 0.5 261 28.9
2012-01-24 12:30:45 51°26.62 2°51.713 246.9 0.4 247 29
2012-01-24 12:31:45 51°26.619 2°51.712 247.5 0.3 108 29.3
2012-01-24 12:32:45 51°26.622 2°51.729 245.1 0.9 68 29.2
2012-01-24 12:33:45 51°26.625 2°51.757 244.4 1.2 78 29.2
2012-01-24 12:34:45 51°26.624 2°51.772 236.5 1.7 217 29.7
2012-01-24 12:35:45 51°26.541 2°51.762 186.4 8.3 176 29.9
2012-01-24 12:36:45 51°26.369 2°51.789 183.1 10.9 176 30.6
2012-01-24 12:37:45 51°26.187 2°51.804 185.7 11.1 178 28.5
2012-01-24 12:38:45 51°26.004 2°51.796 190 11 182 31.4
2012-01-24 12:39:45 51°25.82 2°51.793 185.7 11 178 34.6
2012-01-24 12:40:45 51°25.633 2°51.801 184.4 11.2 178 33.4
2012-01-24 12:41:45 51°25.451 2°51.81 183.7 10.6 180 28
2012-01-24 12:42:45 51°25.272 2°51.8 188.9 10.9 184 26.6
2012-01-24 12:43:45 51°25.09 2°51.797 185.7 10.9 178 26.1
2012-01-24 12:44:45 51°24.906 2°51.806 186.4 10.9 178 25.6
2012-01-24 12:45:45 51°24.722 2°51.813 185.3 11.1 179 25.3
2012-01-24 12:46:45 51°24.537 2°51.827 184.4 11.1 176 24.8
2012-01-24 12:47:45 51°24.351 2°51.834 184.8 10.9 179 23.4
2012-01-24 12:48:45 51°24.166 2°51.833 187 11.2 180 23
2012-01-24 12:49:45 51°23.98 2°51.838 184.1 11.2 175 20.8
2012-01-24 12:50:45 51°23.793 2°51.836 186.7 11.4 180 19.7
2012-01-24 12:51:45 51°23.606 2°51.85 183.4 11.3 178 18.7
2012-01-24 12:52:45 51°23.418 2°51.861 184.2 11.3 176 18.6
2012-01-24 12:53:45 51°23.231 2°51.874 184.5 11.2 180 21
2012-01-24 12:54:45 51°23.046 2°51.874 185 11 177 26.5
2012-01-24 12:55:45 51°22.869 2°51.883 185.5 10.4 179 26.5
2012-01-24 12:56:45 51°22.694 2°51.891 188.4 10.5 181 26.7
2012-01-24 12:57:45 51°22.519 2°51.9 184.1 10.5 175 26.5
2012-01-24 12:58:45 51°22.342 2°51.918 184.1 10.5 179 27.1
2012-01-24 12:59:45 51°22.166 2°51.926 186.7 10.6 182 27.1
2012-01-24 13:00:45 51°21.99 2°51.924 182.7 10.7 177 27.7
2012-01-24 13:01:45 51°21.812 2°51.939 184.5 10.7 177 27.7
2012-01-24 13:02:45 51°21.633 2°51.956 183.2 10.5 178 26
2012-01-24 13:03:45 51°21.454 2°51.95 188.8 11.1 181 24.9
2012-01-24 13:04:45 51°21.275 2°51.942 187.5 10.6 180 22.6
2012-01-24 13:05:45 51°21.093 2°51.951 183.9 10.8 178 20.6
2012-01-24 13:06:45 51°20.911 2°51.972 182.3 11.1 175 19.2
2012-01-24 13:07:45 51°20.727 2°51.979 186.9 11.2 184 17.6
2012-01-24 13:08:45 51°20.545 2°51.965 187.2 11.1 180 17
2012-01-24 13:09:45 51°20.361 2°51.979 183.8 11.1 178 17.5
2012-01-24 13:10:45 51°20.176 2°51.979 186.5 11 184 18.7
2012-01-24 13:11:45 51°19.996 2°51.977 185.5 10.7 179 19
2012-01-24 13:12:45 51°19.817 2°52.005 179 10.8 172 19.5
2012-01-24 13:13:45 51°19.637 2°52.041 179.4 11 173 19.3
2012-01-24 13:14:45 51°19.458 2°52.073 180.8 10.7 174 19.1
2012-01-24 13:15:45 51°19.281 2°52.085 183.3 10.7 176 18.6
2012-01-24 13:16:45 51°19.104 2°52.114 180.8 10.8 173 18.2
2012-01-24 13:17:45 51°18.925 2°52.153 179.1 11 174 17.1
2012-01-24 13:18:45 51°18.744 2°52.163 185.4 10.8 180 16.2
2012-01-24 13:19:45 51°18.558 2°52.162 182.4 11.1 178 15.1
2012-01-24 13:20:45 51°18.374 2°52.185 177.1 11.3 171 14.9
2012-01-24 13:21:45 51°18.189 2°52.206 180.2 11 174 14.9
2012-01-24 13:22:45 51°18.003 2°52.241 178 11.1 173 14.5
2012-01-24 13:23:45 51°17.822 2°52.271 180.1 10.6 174 14.4
2012-01-24 13:24:45 51°17.643 2°52.352 168.3 11.3 164 13.9
2012-01-24 13:25:45 51°17.462 2°52.44 168.9 11.7 164 13.7
2012-01-24 13:26:45 51°17.281 2°52.527 167 11.6 161 13.6
2012-01-24 13:27:45 51°17.106 2°52.667 156.9 11.6 153 13
2012-01-24 13:28:45 51°16.926 2°52.78 168.9 11.5 163 13
2012-01-24 13:29:45 51°16.746 2°52.896 161.6 11.8 154 14.1
2012-01-24 13:30:45 51°16.564 2°53.02 167.9 11.8 161 15.3
2012-01-24 13:31:45 51°16.379 2°53.127 164.1 11.9 158 15.6
2012-01-24 13:32:45 51°16.193 2°53.255 166 12.1 160 15.4
2012-01-24 13:33:45 51°16.005 2°53.364 164.8 12 156 15.4
2012-01-24 13:34:45 51°15.825 2°53.519 156.7 11.9 152 15.4
2012-01-24 13:35:45 51°15.648 2°53.679 155.9 12 151 15.4
2012-01-24 13:36:45 51°15.481 2°53.852 143.4 11.9 140 15.1
2012-01-24 13:37:45 51°15.325 2°54.054 143 12.1 139 15.1
2012-01-24 13:38:45 51°15.169 2°54.258 141.2 12.2 139 15
2012-01-24 13:39:45 51°15.016 2°54.47 142.3 12.4 137 14.9
2012-01-24 13:40:45 51°14.862 2°54.676 145.8 12.1 142 15.1
2012-01-24 13:41:45 51°14.704 2°54.874 147.4 11.9 142 14.8
2012-01-24 13:42:45 51°14.54 2°55.049 154.1 11.6 155 14.7
2012-01-24 13:43:46 51°14.374 2°55.197 146.6 9.3 148 -999
2012-01-24 13:44:48 51°14.262 2°55.297 149.6 6.5 151 -999
2012-01-24 13:45:47 51°14.162 2°55.38 151.4 7.3 153 13.6
2012-01-24 13:46:47 51°14.048 2°55.468 153.3 7.8 155 13.4
2012-01-24 13:47:46 51°13.931 2°55.55 155.1 7.4 157 13.7
2012-01-24 13:48:46 51°13.83 2°55.625 152.5 6.3 151 -999
2012-01-24 13:49:45 51°13.753 2°55.726 132.2 6 133 13.9
2012-01-24 13:50:48 51°13.689 2°55.846 126.4 5.1 127 14.6
2012-01-24 13:51:49 51°13.65 2°55.947 113.2 3.9 113 -999
2012-01-24 13:52:47 51°13.638 2°56.014 111.9 1.1 110 12.1
2012-01-24 13:53:43 51°13.636 2°56.019 123.5 0.1 67 12
2012-01-24 14:51:54 51°13.636 2°56.019 124.4 -999 -999 -999
2012-01-24 14:52:53 51°13.634 2°56.017 124.4 0.1 149 -999
2012-01-24 14:53:53 51°13.635 2°56.016 124.4 -999 210 -999
2012-01-24 14:54:53 51°13.635 2°56.016 124.4 -999 88 -999
2012-01-24 14:55:53 51°13.637 2°56.018 124.2 -999 111 -999
2012-01-24 14:56:53 51°13.638 2°56.018 124.3 0.1 318 -999
2012-01-24 14:57:53 51°13.638 2°56.018 124.3 -999 307 -999
2012-01-24 14:58:53 51°13.637 2°56.018 124.2 -999 290 -999
2012-01-24 14:59:53 51°13.637 2°56.019 124.2 -999 169 -999